createdAt,value
2022-08-27T00:01:43.054Z,23.69
2022-08-27T00:04:50.645Z,23.67
2022-08-27T00:07:55.210Z,23.62
2022-08-27T00:11:01.655Z,23.57
2022-08-27T00:14:08.199Z,23.55
2022-08-27T00:17:14.424Z,23.49
2022-08-27T00:20:43.099Z,23.44
2022-08-27T00:23:48.921Z,23.42
2022-08-27T00:26:57.471Z,23.37
2022-08-27T00:30:06.100Z,23.34
2022-08-27T00:33:11.676Z,23.30
2022-08-27T00:36:18.221Z,23.27
2022-08-27T00:39:24.480Z,23.23
2022-08-27T00:42:31.478Z,23.20
2022-08-27T00:45:38.481Z,23.18
2022-08-27T00:48:47.390Z,23.16
2022-08-27T00:51:53.959Z,23.13
2022-08-27T00:55:00.536Z,23.12
2022-08-27T00:58:17.445Z,23.10
2022-08-27T01:01:26.314Z,23.08
2022-08-27T01:04:34.383Z,23.04
2022-08-27T01:07:43.762Z,22.99
2022-08-27T01:10:52.340Z,22.96
2022-08-27T01:14:00.982Z,22.91
2022-08-27T01:17:13.377Z,22.86
2022-08-27T01:20:22.804Z,22.80
2022-08-27T01:24:09.118Z,22.73
2022-08-27T01:27:16.549Z,22.69
2022-08-27T01:30:22.978Z,22.65
2022-08-27T01:33:30.784Z,22.60
2022-08-27T01:36:35.711Z,22.57
2022-08-27T01:39:41.574Z,22.55
2022-08-27T01:42:54.494Z,22.55
2022-08-27T01:46:03.455Z,22.54
2022-08-27T01:49:11.541Z,22.51
2022-08-27T01:52:18.659Z,22.46
2022-08-27T01:55:26.345Z,22.43
2022-08-27T01:58:33.921Z,22.41
2022-08-27T02:01:39.679Z,22.40
2022-08-27T02:04:47.065Z,22.38
2022-08-27T02:07:54.040Z,22.38
2022-08-27T02:11:01.659Z,22.36
2022-08-27T02:14:12.926Z,22.35
2022-08-27T02:17:19.191Z,22.33
2022-08-27T02:20:29.189Z,22.34
2022-08-27T02:23:35.927Z,22.32
2022-08-27T02:26:42.195Z,22.33
2022-08-27T02:29:49.693Z,22.32
2022-08-27T02:32:56.695Z,22.33
2022-08-27T02:36:03.447Z,22.34
2022-08-27T02:39:09.506Z,22.35
2022-08-27T02:42:15.048Z,22.31
2022-08-27T02:45:21.333Z,22.27
2022-08-27T02:48:28.618Z,22.28
2022-08-27T02:51:33.752Z,22.25
2022-08-27T02:54:41.765Z,22.23
2022-08-27T02:57:50.473Z,22.21
2022-08-27T03:00:59.860Z,22.19
2022-08-27T03:04:05.579Z,22.18
2022-08-27T03:07:18.706Z,22.17
2022-08-27T03:10:21.793Z,22.18
2022-08-27T03:13:31.231Z,22.20
2022-08-27T03:16:36.882Z,22.25
2022-08-27T03:19:44.602Z,22.28
2022-08-27T03:22:50.147Z,22.33
2022-08-27T03:26:06.552Z,22.36
2022-08-27T03:29:12.732Z,22.41
2022-08-27T03:32:20.510Z,22.44
2022-08-27T03:35:29.565Z,22.46
2022-08-27T03:38:36.224Z,22.51
2022-08-27T03:41:54.111Z,22.56
2022-08-27T03:44:49.986Z,22.63
2022-08-27T03:47:59.375Z,22.68
2022-08-27T03:51:04.969Z,22.74
2022-08-27T03:54:10.819Z,22.79
2022-08-27T03:57:17.621Z,22.82
2022-08-27T04:00:24.953Z,22.86
2022-08-27T04:03:30.941Z,22.90
2022-08-27T04:06:36.397Z,22.92
2022-08-27T04:09:44.713Z,22.95
2022-08-27T04:12:50.926Z,22.98
2022-08-27T04:16:03.986Z,22.99
2022-08-27T04:19:22.915Z,23.00
2022-08-27T04:22:29.031Z,23.03
2022-08-27T04:25:35.760Z,23.05
2022-08-27T04:28:42.614Z,23.11
2022-08-27T04:31:50.692Z,23.15
2022-08-27T04:34:57.576Z,23.19
2022-08-27T04:38:04.457Z,23.22
2022-08-27T04:41:30.896Z,23.28
2022-08-27T04:44:37.987Z,23.29
2022-08-27T04:47:44.152Z,23.32
2022-08-27T04:50:49.785Z,23.29
2022-08-27T04:53:57.520Z,23.31
2022-08-27T04:57:05.511Z,23.34
2022-08-27T05:00:14.557Z,23.37
2022-08-27T05:03:21.925Z,23.42
2022-08-27T05:06:28.241Z,23.47
2022-08-27T05:09:34.135Z,23.58
2022-08-27T05:13:02.033Z,23.70
2022-08-27T05:16:17.946Z,23.79
2022-08-27T05:19:26.426Z,23.89
2022-08-27T05:22:32.297Z,24.02
2022-08-27T05:25:39.197Z,24.13
2022-08-27T05:28:44.622Z,24.25
2022-08-27T05:31:51.496Z,24.33
2022-08-27T05:34:58.074Z,24.38
2022-08-27T05:38:03.129Z,24.40
2022-08-27T05:41:23.727Z,24.40
2022-08-27T05:44:46.569Z,24.39
2022-08-27T05:47:44.867Z,24.39
2022-08-27T05:50:46.580Z,24.36
2022-08-27T05:53:53.175Z,24.38
2022-08-27T05:57:01.385Z,24.42
2022-08-27T06:00:27.565Z,24.48
2022-08-27T06:03:33.864Z,24.51
2022-08-27T06:06:42.219Z,24.57
2022-08-27T06:09:48.705Z,24.61
2022-08-27T06:12:57.020Z,24.67
2022-08-27T06:16:04.324Z,24.74
2022-08-27T06:19:12.885Z,24.80
2022-08-27T06:22:19.940Z,24.85
2022-08-27T06:25:25.963Z,24.92
2022-08-27T06:28:37.662Z,24.98
2022-08-27T06:31:44.469Z,25.03
2022-08-27T06:34:50.431Z,25.11
2022-08-27T06:37:56.753Z,25.15
2022-08-27T06:41:02.955Z,25.22
2022-08-27T06:44:09.469Z,25.30
2022-08-27T06:47:16.558Z,25.35
2022-08-27T06:50:28.938Z,25.41
2022-08-27T06:53:35.549Z,25.45
2022-08-27T06:56:40.800Z,25.49
2022-08-27T06:59:48.593Z,25.55
2022-08-27T07:02:54.576Z,25.57
2022-08-27T07:05:59.981Z,25.62
2022-08-27T07:09:05.857Z,25.68
2022-08-27T07:12:12.147Z,25.75
2022-08-27T07:15:21.748Z,25.81
2022-08-27T07:18:27.892Z,25.91
2022-08-27T07:21:33.329Z,25.98
2022-08-27T07:24:39.483Z,26.04
2022-08-27T07:27:46.254Z,26.09
2022-08-27T07:30:52.989Z,26.14
2022-08-27T07:33:53.410Z,26.20
2022-08-27T07:36:59.990Z,26.27
2022-08-27T07:40:06.672Z,26.33
2022-08-27T07:43:31.087Z,26.38
2022-08-27T07:46:40.091Z,26.43
2022-08-27T07:49:45.226Z,26.48
2022-08-27T07:52:53.197Z,26.56
2022-08-27T07:55:58.394Z,26.64
2022-08-27T07:59:06.446Z,26.72
2022-08-27T08:02:12.392Z,26.78
2022-08-27T08:05:20.995Z,26.88
2022-08-27T08:08:26.626Z,26.94
2022-08-27T08:11:33.670Z,27.02
2022-08-27T08:14:39.204Z,27.09
2022-08-27T08:17:47.310Z,27.17
2022-08-27T08:20:58.578Z,27.24
2022-08-27T08:24:04.094Z,27.30
2022-08-27T08:27:09.535Z,27.35
2022-08-27T08:30:09.362Z,27.41
2022-08-27T08:33:17.487Z,27.54
2022-08-27T08:36:27.168Z,27.64
2022-08-27T08:39:35.565Z,27.73
2022-08-27T08:42:59.424Z,27.83
2022-08-27T08:46:05.638Z,27.92
2022-08-27T08:49:13.459Z,27.97
2022-08-27T08:52:45.289Z,28.03
2022-08-27T08:56:17.074Z,28.11
2022-08-27T08:59:42.625Z,28.18
2022-08-27T09:02:49.114Z,28.25
2022-08-27T09:05:55.809Z,28.33
2022-08-27T09:09:02.023Z,28.39
2022-08-27T09:12:19.637Z,28.44
2022-08-27T09:15:40.039Z,28.48
2022-08-27T09:18:45.739Z,28.55
2022-08-27T09:22:32.027Z,28.61
2022-08-27T09:25:48.623Z,28.66
2022-08-27T09:29:14.426Z,28.74
2022-08-27T09:32:23.184Z,28.82
2022-08-27T09:35:33.549Z,28.90
2022-08-27T09:38:44.671Z,28.99
2022-08-27T09:42:00.912Z,29.08
2022-08-27T09:45:08.552Z,29.15
2022-08-27T09:48:26.635Z,29.21
2022-08-27T09:51:43.131Z,29.27
2022-08-27T09:55:01.544Z,29.30
2022-08-27T09:58:08.971Z,29.37
2022-08-27T10:01:21.733Z,29.45
2022-08-27T10:04:30.242Z,29.56
2022-08-27T10:08:14.606Z,29.73
2022-08-27T10:11:33.419Z,29.85
2022-08-27T10:14:46.683Z,29.98
2022-08-27T10:18:17.500Z,30.13
2022-08-27T10:21:55.537Z,30.23
2022-08-27T10:25:11.328Z,30.35
2022-08-27T10:29:07.604Z,30.35
2022-08-27T10:32:52.257Z,30.65
2022-08-27T10:36:06.141Z,30.65
2022-08-27T10:39:22.647Z,31.18
2022-08-27T10:42:45.630Z,31.18
2022-08-27T10:46:14.195Z,31.52
2022-08-27T10:49:27.479Z,31.78
2022-08-27T10:52:52.244Z,32.02
2022-08-27T10:56:03.676Z,32.17
2022-08-27T10:59:23.484Z,32.28
2022-08-27T11:02:42.659Z,32.38
2022-08-27T11:05:58.990Z,32.53
2022-08-27T11:09:14.930Z,32.61
2022-08-27T11:12:25.450Z,32.70
2022-08-27T11:15:42.839Z,32.71
2022-08-27T11:19:18.989Z,32.59
2022-08-27T11:22:36.515Z,32.50
2022-08-27T11:26:02.854Z,32.50
2022-08-27T11:29:15.856Z,32.50
2022-08-27T11:32:33.148Z,32.60
2022-08-27T11:35:46.607Z,32.75
2022-08-27T11:39:14.212Z,32.75
2022-08-27T11:42:45.143Z,32.60
2022-08-27T11:46:08.629Z,32.49
2022-08-27T11:49:16.285Z,32.57
2022-08-27T11:52:23.338Z,32.59
2022-08-27T11:55:46.164Z,32.54
2022-08-27T11:58:52.662Z,32.54
2022-08-27T12:02:00.215Z,32.52
2022-08-27T12:05:05.732Z,32.50
2022-08-27T12:08:12.280Z,32.49
2022-08-27T12:11:29.386Z,32.48
2022-08-27T12:14:53.024Z,32.48
2022-08-27T12:18:25.264Z,32.47
2022-08-27T12:22:03.110Z,32.46
2022-08-27T12:25:10.382Z,32.47
2022-08-27T12:28:18.742Z,32.51
2022-08-27T12:31:23.540Z,32.50
2022-08-27T12:34:38.328Z,32.45
2022-08-27T12:37:48.278Z,32.41
2022-08-27T12:41:19.129Z,32.38
2022-08-27T12:44:24.643Z,32.39
2022-08-27T12:47:30.545Z,32.41
2022-08-27T12:50:45.081Z,32.42
2022-08-27T12:53:57.395Z,32.41
2022-08-27T12:57:13.061Z,32.37
2022-08-27T13:00:32.904Z,32.36
2022-08-27T13:03:54.276Z,32.32
2022-08-27T13:07:01.083Z,32.30
2022-08-27T13:10:08.560Z,32.27
2022-08-27T13:13:31.207Z,32.19
2022-08-27T13:16:40.072Z,32.11
2022-08-27T13:19:54.353Z,32.07
2022-08-27T13:23:00.478Z,32.06
2022-08-27T13:26:18.799Z,32.05
2022-08-27T13:29:25.536Z,31.96
2022-08-27T13:32:31.844Z,31.90
2022-08-27T13:35:39.777Z,31.90
2022-08-27T13:38:50.351Z,31.85
2022-08-27T13:41:59.836Z,31.80
2022-08-27T13:45:05.232Z,31.76
2022-08-27T13:48:12.092Z,31.74
2022-08-27T13:51:19.212Z,31.70
2022-08-27T13:54:26.803Z,31.66
2022-08-27T13:57:45.566Z,31.61
2022-08-27T14:00:53.515Z,31.60
2022-08-27T14:04:07.049Z,31.60
2022-08-27T14:07:16.536Z,31.58
2022-08-27T14:10:34.839Z,31.55
2022-08-27T14:13:43.401Z,31.51
2022-08-27T14:16:48.685Z,31.46
2022-08-27T14:19:57.549Z,31.43
2022-08-27T14:23:05.160Z,31.42
2022-08-27T14:26:15.060Z,31.37
2022-08-27T14:29:21.375Z,31.33
2022-08-27T14:32:27.719Z,31.32
2022-08-27T14:35:39.628Z,31.34
2022-08-27T14:38:47.651Z,31.35
2022-08-27T14:41:54.591Z,31.34
2022-08-27T14:44:59.344Z,31.24
2022-08-27T14:48:06.968Z,31.16
2022-08-27T14:51:20.667Z,31.11
2022-08-27T14:54:29.095Z,31.06
2022-08-27T14:57:34.985Z,31.02
2022-08-27T15:00:39.984Z,31.08
2022-08-27T15:03:46.928Z,31.24
2022-08-27T15:06:52.693Z,31.26
2022-08-27T15:10:00.796Z,31.24
2022-08-27T15:13:07.920Z,31.20
2022-08-27T15:16:16.016Z,31.12
2022-08-27T15:19:22.643Z,31.05
2022-08-27T15:22:36.431Z,30.97
2022-08-27T15:25:43.496Z,30.90
2022-08-27T15:28:48.287Z,30.85
2022-08-27T15:31:56.698Z,30.76
2022-08-27T15:35:03.903Z,30.70
2022-08-27T15:38:11.168Z,30.64
2022-08-27T15:41:17.315Z,30.58
2022-08-27T15:44:24.114Z,30.50
2022-08-27T15:47:29.516Z,30.41
2022-08-27T15:50:35.510Z,30.30
2022-08-27T15:53:40.945Z,30.18
2022-08-27T15:56:46.921Z,30.01
2022-08-27T15:59:52.126Z,29.85
2022-08-27T16:02:58.523Z,29.75
2022-08-27T16:06:05.709Z,29.60
2022-08-27T16:09:11.309Z,29.49
2022-08-27T16:12:26.785Z,29.38
2022-08-27T16:15:27.157Z,29.28
2022-08-27T16:18:32.895Z,29.17
2022-08-27T16:21:32.253Z,29.05
2022-08-27T16:24:38.319Z,28.95
2022-08-27T16:27:43.966Z,28.85
2022-08-27T16:30:51.056Z,28.76
2022-08-27T16:33:57.498Z,28.66
2022-08-27T16:37:05.310Z,28.56
2022-08-27T16:40:15.403Z,28.46
2022-08-27T16:43:22.605Z,28.34
2022-08-27T16:46:28.278Z,28.22
2022-08-27T16:49:52.790Z,28.11
2022-08-27T16:52:58.955Z,28.00
2022-08-27T16:56:07.379Z,27.90
2022-08-27T16:59:14.931Z,27.80
2022-08-27T17:02:21.483Z,27.72
2022-08-27T17:05:33.955Z,27.64
2022-08-27T17:08:47.757Z,27.58
2022-08-27T17:11:47.053Z,27.51
2022-08-27T17:14:53.629Z,27.43
2022-08-27T17:18:02.201Z,27.37
2022-08-27T17:21:07.798Z,27.28
2022-08-27T17:24:15.278Z,27.20
2022-08-27T17:27:21.562Z,27.09
2022-08-27T17:30:29.822Z,26.97
2022-08-27T17:33:53.829Z,26.78
2022-08-27T17:37:00.991Z,26.57
2022-08-27T17:40:07.456Z,26.33
2022-08-27T17:43:14.471Z,26.06
2022-08-27T17:46:22.003Z,25.79
2022-08-27T17:49:28.344Z,25.57
2022-08-27T17:52:36.618Z,25.38
2022-08-27T17:55:42.367Z,25.24
2022-08-27T17:58:48.894Z,25.08
2022-08-27T18:01:57.219Z,24.96
2022-08-27T18:05:04.133Z,24.88
2022-08-27T18:08:10.292Z,24.80
2022-08-27T18:11:19.790Z,24.70
2022-08-27T18:14:25.522Z,24.62
2022-08-27T18:17:31.255Z,24.55
2022-08-27T18:20:40.756Z,24.48
2022-08-27T18:23:49.850Z,24.40
2022-08-27T18:26:57.944Z,24.33
2022-08-27T18:30:05.659Z,24.24
2022-08-27T18:33:11.806Z,24.19
2022-08-27T18:36:19.080Z,24.13
2022-08-27T18:39:25.756Z,24.12
2022-08-27T18:42:32.545Z,24.10
2022-08-27T18:45:43.862Z,24.07
2022-08-27T18:48:51.101Z,24.01
2022-08-27T18:52:00.489Z,23.91
2022-08-27T18:55:07.962Z,23.84
2022-08-27T18:58:14.329Z,23.77
2022-08-27T19:01:22.623Z,23.68
2022-08-27T19:04:28.938Z,23.61
2022-08-27T19:07:39.058Z,23.55
2022-08-27T19:10:43.767Z,23.48
2022-08-27T19:13:50.680Z,23.42
2022-08-27T19:17:05.474Z,23.36
2022-08-27T19:20:10.902Z,23.23
2022-08-27T19:23:16.078Z,23.11
2022-08-27T19:26:30.347Z,23.05
2022-08-27T19:29:36.814Z,23.00
2022-08-27T19:32:42.075Z,22.98
2022-08-27T19:35:52.366Z,22.90
2022-08-27T19:39:08.068Z,22.84
2022-08-27T19:42:16.552Z,22.77
2022-08-27T19:45:28.648Z,22.70
2022-08-27T19:48:35.840Z,22.65
2022-08-27T19:51:42.703Z,22.60
2022-08-27T19:55:10.235Z,22.59
2022-08-27T19:57:58.652Z,22.58
2022-08-27T20:01:05.079Z,22.59
2022-08-27T20:04:10.813Z,22.59
2022-08-27T20:07:15.975Z,22.59
2022-08-27T20:10:21.617Z,22.61
2022-08-27T20:13:33.020Z,22.63
2022-08-27T20:16:38.019Z,22.67
2022-08-27T20:19:47.717Z,22.69
2022-08-27T20:22:55.505Z,22.64
2022-08-27T20:26:01.678Z,22.58
2022-08-27T20:29:03.879Z,22.58
2022-08-27T20:32:03.740Z,22.51
2022-08-27T20:35:11.280Z,22.46
2022-08-27T20:38:16.836Z,22.43
2022-08-27T20:41:26.060Z,22.42
2022-08-27T20:44:32.429Z,22.39
2022-08-27T20:47:39.417Z,22.37
2022-08-27T20:50:46.695Z,22.35
2022-08-27T20:53:52.978Z,22.33
2022-08-27T20:56:59.543Z,22.27
2022-08-27T21:00:23.927Z,22.21
2022-08-27T21:03:31.031Z,22.17
2022-08-27T21:06:36.797Z,22.12
2022-08-27T21:09:55.447Z,22.08
2022-08-27T21:12:50.234Z,22.05
2022-08-27T21:15:56.916Z,22.02
2022-08-27T21:19:03.687Z,22.02
2022-08-27T21:22:08.816Z,22.03
2022-08-27T21:25:15.095Z,22.04
2022-08-27T21:28:22.172Z,22.05
2022-08-27T21:31:28.520Z,22.03
2022-08-27T21:34:35.338Z,22.02
2022-08-27T21:37:41.298Z,22.01
2022-08-27T21:40:46.880Z,22.01
2022-08-27T21:43:54.239Z,22.01
2022-08-27T21:47:00.811Z,21.99
2022-08-27T21:50:08.497Z,21.97
2022-08-27T21:53:14.257Z,21.97
2022-08-27T21:56:20.414Z,21.99
2022-08-27T21:59:26.974Z,21.97
2022-08-27T22:02:40.335Z,21.96
2022-08-27T22:05:45.157Z,21.95
2022-08-27T22:08:52.042Z,21.93
2022-08-27T22:11:59.418Z,21.93
2022-08-27T22:15:09.267Z,21.96
2022-08-27T22:18:15.837Z,21.99
2022-08-27T22:21:21.501Z,22.04
2022-08-27T22:24:27.881Z,22.08
2022-08-27T22:27:34.854Z,22.10
2022-08-27T22:30:41.852Z,22.11
2022-08-27T22:33:49.124Z,22.12
2022-08-27T22:36:56.819Z,22.14
2022-08-27T22:40:03.535Z,22.11
2022-08-27T22:43:10.378Z,22.11
2022-08-27T22:46:17.499Z,22.11
2022-08-27T22:49:24.032Z,22.10
2022-08-27T22:52:29.328Z,22.09
2022-08-27T22:55:38.000Z,22.06
2022-08-27T22:58:46.265Z,22.04
2022-08-27T23:01:55.268Z,22.04
2022-08-27T23:05:03.566Z,22.02
2022-08-27T23:08:09.053Z,21.99
2022-08-27T23:11:15.901Z,21.95
2022-08-27T23:14:22.789Z,21.95
2022-08-27T23:17:30.877Z,21.96
2022-08-27T23:20:37.857Z,21.95
2022-08-27T23:23:44.634Z,21.95
2022-08-27T23:27:08.631Z,21.98
2022-08-27T23:30:17.040Z,21.96
2022-08-27T23:33:17.842Z,21.95
2022-08-27T23:36:18.197Z,21.93
2022-08-27T23:39:23.857Z,21.92
2022-08-27T23:42:30.221Z,21.91
2022-08-27T23:45:40.584Z,21.90
2022-08-27T23:48:46.671Z,21.84
2022-08-27T23:51:52.290Z,21.80
2022-08-27T23:54:58.153Z,21.77
2022-08-27T23:58:04.677Z,21.71
